Time;durP1;ratioP1;P1;durP2;ratioP2;P2;SDS_P1;SDS_P2;PMS_P1;PMS_P2;Temp;Humidity;BMP_temperature;BMP_pressure;BME280_temperature;BME280_humidity;BME280_pressure;Samples;Min_cycle;Max_cycle;Signal;HPM_P1;HPM_P2
2021/01/30 00:01:26;;;;;;;3.08;1.48;;;5.40;92.90;;;;;;5013728;28;20041;-77
2021/01/30 00:03:52;;;;;;;1.98;1.20;;;5.40;92.90;;;;;;5013513;28;20026;-77
2021/01/30 00:06:18;;;;;;;2.55;1.23;;;5.50;93.10;;;;;;5031746;28;20029;-77
2021/01/30 00:08:43;;;;;;;1.88;1.00;;;5.50;93.00;;;;;;5031180;28;20025;-77
2021/01/30 00:11:12;;;;;;;1.70;0.82;;;5.60;93.10;;;;;;5031971;28;20068;-76
2021/01/30 00:13:42;;;;;;;3.75;1.35;;;5.60;93.10;;;;;;5031067;28;20532;-76
2021/01/30 00:16:07;;;;;;;3.63;1.52;;;5.50;93.10;;;;;;5013699;28;20470;-76
2021/01/30 00:18:33;;;;;;;3.50;1.92;;;5.50;92.80;;;;;;5031796;28;20030;-76
2021/01/30 00:20:58;;;;;;;6.43;2.13;;;5.40;92.80;;;;;;5030584;28;20068;-75
2021/01/30 00:23:24;;;;;;;5.13;2.45;;;5.30;92.90;;;;;;5013747;28;20377;-76
2021/01/30 00:25:50;;;;;;;4.35;1.75;;;5.30;93.00;;;;;;5031271;28;20026;-76
2021/01/30 00:28:16;;;;;;;4.03;1.95;;;5.20;93.10;;;;;;5013775;28;20415;-76
2021/01/30 00:30:41;;;;;;;5.32;2.03;;;5.30;93.20;;;;;;5013321;28;20071;-77
2021/01/30 00:33:08;;;;;;;5.75;2.33;;;5.40;93.20;;;;;;5031633;28;20034;-77
2021/01/30 00:35:34;;;;;;;4.85;2.22;;;5.40;93.10;;;;;;5031760;28;20351;-76
2021/01/30 00:38:00;;;;;;;8.20;3.00;;;5.40;93.20;;;;;;5013228;28;20029;-76
2021/01/30 00:40:27;;;;;;;9.13;2.65;;;5.40;93.00;;;;;;5031445;28;20152;-76
2021/01/30 00:42:53;;;;;;;10.40;3.05;;;5.30;93.00;;;;;;5012793;28;20036;-76
2021/01/30 00:45:21;;;;;;;7.78;3.10;;;5.30;93.20;;;;;;5031268;28;20021;-77
2021/01/30 00:47:47;;;;;;;9.93;2.88;;;5.30;93.20;;;;;;5030968;28;20162;-77
2021/01/30 00:50:15;;;;;;;8.00;2.83;;;5.20;93.20;;;;;;5031477;28;20032;-75
2021/01/30 00:52:44;;;;;;;8.82;3.75;;;5.30;93.30;;;;;;5013075;28;20055;-78
2021/01/30 00:55:12;;;;;;;10.25;4.05;;;5.30;93.40;;;;;;5013600;28;20029;-77
2021/01/30 00:57:38;;;;;;;11.15;4.40;;;5.30;93.20;;;;;;5031645;28;20163;-77
2021/01/30 01:00:19;;;;;;;8.35;3.40;;;5.20;93.10;;;;;;5030686;28;20131;-76
2021/01/30 01:02:45;;;;;;;10.23;3.85;;;5.20;93.20;;;;;;5013143;28;20032;-75
2021/01/30 01:05:13;;;;;;;9.60;4.15;;;5.10;93.30;;;;;;5016514;28;20026;-77
2021/01/30 01:07:38;;;;;;;15.00;4.10;;;5.20;93.30;;;;;;5022189;28;20132;-76
2021/01/30 01:10:05;;;;;;;9.43;4.40;;;5.20;93.30;;;;;;5044700;28;20052;-77
2021/01/30 01:12:31;;;;;;;16.45;5.35;;;5.20;93.20;;;;;;5021500;28;20018;-76
2021/01/30 01:14:56;;;;;;;10.73;4.40;;;5.20;93.10;;;;;;5016685;28;20084;-77
2021/01/30 01:17:22;;;;;;;13.40;4.53;;;5.30;93.10;;;;;;5034735;28;20311;-77
2021/01/30 01:19:47;;;;;;;10.05;4.80;;;5.20;93.10;;;;;;5034080;28;20028;-77
2021/01/30 01:22:13;;;;;;;14.18;4.57;;;5.10;93.10;;;;;;5034527;28;20025;-76
2021/01/30 01:24:39;;;;;;;12.68;4.60;;;5.10;93.20;;;;;;5034459;28;20473;-76
2021/01/30 01:27:04;;;;;;;14.95;4.80;;;5.10;93.30;;;;;;5033841;28;20079;-76
2021/01/30 01:29:30;;;;;;;14.45;4.38;;;5.10;93.20;;;;;;5016737;28;20057;-76
2021/01/30 01:31:57;;;;;;;14.63;4.80;;;5.10;93.30;;;;;;5015900;28;20040;-76
2021/01/30 01:34:28;;;;;;;13.05;5.55;;;5.10;93.60;;;;;;5016560;28;20028;-76
2021/01/30 01:37:04;;;;;;;13.52;5.18;;;5.10;93.30;;;;;;5034098;28;20473;-76
2021/01/30 01:39:32;;;;;;;13.07;4.40;;;5.10;93.30;;;;;;5033977;28;20018;-76
2021/01/30 01:42:14;;;;;;;13.05;4.47;;;5.00;93.30;;;;;;5015738;28;20029;-75
2021/01/30 01:44:42;;;;;;;10.35;4.25;;;5.00;93.30;;;;;;5034190;28;20058;-76
2021/01/30 01:47:12;;;;;;;9.45;4.13;;;5.00;93.30;;;;;;5015264;28;20120;-77
2021/01/30 01:49:40;;;;;;;8.98;3.78;;;5.00;93.20;;;;;;5016237;28;20057;-76
2021/01/30 01:52:09;;;;;;;13.35;3.95;;;4.90;93.20;;;;;;5015074;28;20029;-77
2021/01/30 01:54:39;;;;;;;9.63;3.47;;;4.90;93.30;;;;;;5034017;28;20036;-76
2021/01/30 01:57:14;;;;;;;13.13;4.82;;;4.90;93.30;;;;;;5033231;28;20454;-76
2021/01/30 01:59:48;;;;;;;11.43;4.00;;;5.00;93.30;;;;;;5016255;28;20025;-76
2021/01/30 02:02:14;;;;;;;11.13;4.13;;;5.00;93.40;;;;;;5033447;28;20029;-76
2021/01/30 02:04:54;;;;;;;11.07;4.38;;;5.00;93.40;;;;;;5033868;28;20048;-76
2021/01/30 02:07:20;;;;;;;12.02;4.05;;;5.00;93.30;;;;;;5033913;28;20030;-76
2021/01/30 02:09:46;;;;;;;9.77;4.55;;;5.00;93.20;;;;;;5033711;28;20029;-76
2021/01/30 02:12:14;;;;;;;10.10;3.95;;;5.00;93.20;;;;;;5033301;28;20037;-76
2021/01/30 02:14:47;;;;;;;12.13;4.38;;;5.00;93.30;;;;;;5015858;28;20086;-77
2021/01/30 02:17:50;;;;;;;10.43;3.78;;;5.00;93.30;;;;;;5015896;28;20170;-76
2021/01/30 02:20:46;;;;;;;11.00;3.47;;;5.00;93.30;;;;;;5015642;28;20045;-76
2021/01/30 02:23:12;;;;;;;9.77;3.55;;;4.90;93.30;;;;;;5032938;28;20036;-76
2021/01/30 02:25:47;;;;;;;10.52;3.58;;;4.90;93.30;;;;;;5033404;28;20029;-76
2021/01/30 02:28:25;;;;;;;8.18;3.13;;;4.90;93.40;;;;;;5015240;28;20094;-76
2021/01/30 02:31:24;;;;;;;7.80;3.15;;;4.90;93.40;;;;;;5014864;28;20029;-76
2021/01/30 02:34:31;;;;;;;11.32;3.95;;;4.80;93.20;;;;;;5032650;28;20029;-76
2021/01/30 02:37:07;;;;;;;7.60;3.17;;;4.80;93.40;;;;;;4952019;29;20589;-77
2021/01/30 02:39:53;;;;;;;11.52;4.75;;;4.80;93.40;;;;;;4936719;29;20019;-77
2021/01/30 02:42:32;;;;;;;10.27;3.75;;;4.90;93.30;;;;;;4989612;28;20042;-76
2021/01/30 02:45:04;;;;;;;10.40;3.42;;;4.90;93.30;;;;;;5030252;28;20045;-76
2021/01/30 02:47:35;;;;;;;9.77;3.80;;;4.80;93.30;;;;;;5033233;28;20021;-77
2021/01/30 02:50:03;;;;;;;;;;;4.80;93.40;;;;;;5032726;28;20100;-76
2021/01/30 02:52:31;;;;;;;10.93;3.28;;;4.80;93.30;;;;;;5032786;28;19905;-76
2021/01/30 02:54:58;;;;;;;10.00;3.35;;;4.80;93.40;;;;;;5032198;28;20024;-77
2021/01/30 02:57:25;;;;;;;9.27;3.97;;;4.90;93.40;;;;;;5032725;28;20057;-76
2021/01/30 02:59:54;;;;;;;8.82;3.38;;;4.90;93.30;;;;;;5030849;28;20014;-77
2021/01/30 03:02:23;;;;;;;10.13;3.50;;;4.90;93.20;;;;;;5032668;28;20038;-76
2021/01/30 03:04:51;;;;;;;6.65;3.20;;;4.80;93.20;;;;;;5031410;28;20124;-76
2021/01/30 03:07:54;;;;;;;9.85;3.92;;;4.80;93.30;;;;;;5031258;28;20021;-76
2021/01/30 03:10:40;;;;;;;8.40;3.10;;;4.90;93.30;;;;;;5032610;28;20026;-76
2021/01/30 03:13:13;;;;;;;6.57;3.38;;;4.80;93.10;;;;;;5032027;28;20090;-76
2021/01/30 03:15:46;;;;;;;7.35;3.08;;;4.80;93.20;;;;;;5031148;28;20105;-76
2021/01/30 03:18:14;;;;;;;9.90;3.40;;;4.70;93.20;;;;;;5030536;28;20104;-76
2021/01/30 03:20:44;;;;;;;5.55;2.85;;;4.70;93.30;;;;;;5031136;28;20017;-76
2021/01/30 03:23:11;;;;;;;8.32;3.22;;;4.70;93.30;;;;;;5031732;28;20358;-76
2021/01/30 03:25:38;;;;;;;6.45;3.08;;;4.70;93.20;;;;;;5030845;28;20114;-75
2021/01/30 03:28:04;;;;;;;5.75;2.67;;;4.60;93.20;;;;;;5031617;28;20030;-76
2021/01/30 03:30:31;;;;;;;7.25;2.90;;;4.60;93.30;;;;;;5030305;28;20075;-75
2021/01/30 03:32:56;;;;;;;5.50;2.85;;;4.60;93.10;;;;;;5031999;28;20415;-76
2021/01/30 03:35:22;;;;;;;6.78;2.88;;;4.50;93.10;;;;;;5031144;28;20127;-76
2021/01/30 03:37:48;;;;;;;7.72;3.28;;;4.50;93.20;;;;;;5030956;28;20347;-77
2021/01/30 03:40:15;;;;;;;6.43;2.83;;;4.40;93.30;;;;;;5030265;28;20048;-77
2021/01/30 03:42:41;;;;;;;7.53;3.40;;;4.50;93.20;;;;;;5031995;28;20034;-76
2021/01/30 03:45:11;;;;;;;9.38;3.65;;;4.50;93.00;;;;;;5031750;28;20032;-76
2021/01/30 03:47:37;;;;;;;9.30;3.20;;;4.50;93.20;;;;;;5014694;28;20036;-76
2021/01/30 03:50:05;;;;;;;5.85;2.83;;;4.50;93.10;;;;;;5031443;28;20751;-77
2021/01/30 03:52:31;;;;;;;9.00;3.75;;;4.50;92.70;;;;;;5031545;28;20470;-77
2021/01/30 03:54:56;;;;;;;9.32;3.35;;;4.50;92.90;;;;;;5031492;28;20032;-77
2021/01/30 03:57:22;;;;;;;7.38;3.03;;;4.50;92.90;;;;;;5031883;28;20212;-77
2021/01/30 03:59:49;;;;;;;5.82;2.80;;;4.50;93.00;;;;;;5014078;28;20351;-77
2021/01/30 04:02:15;;;;;;;9.10;3.25;;;4.50;93.10;;;;;;5030907;28;20292;-76
2021/01/30 04:04:45;;;;;;;5.50;2.33;;;4.50;93.00;;;;;;5014193;28;20119;-76
2021/01/30 04:07:11;;;;;;;5.45;2.63;;;4.50;93.00;;;;;;5031466;28;20515;-76
2021/01/30 04:09:37;;;;;;;5.78;2.58;;;4.50;93.30;;;;;;5031754;28;20022;-76
2021/01/30 04:12:04;;;;;;;5.80;2.53;;;4.50;93.00;;;;;;5031277;28;20040;-76
2021/01/30 04:14:30;;;;;;;5.80;2.72;;;4.50;93.00;;;;;;5031778;28;20034;-76
2021/01/30 04:16:55;;;;;;;6.10;3.03;;;4.50;92.90;;;;;;5013977;28;20021;-76
2021/01/30 04:19:21;;;;;;;8.13;2.65;;;4.40;93.00;;;;;;5031732;28;20064;-76
2021/01/30 04:21:47;;;;;;;6.40;2.45;;;4.40;92.90;;;;;;5013670;28;20025;-76
2021/01/30 04:24:12;;;;;;;7.78;3.50;;;4.50;92.80;;;;;;5031162;28;20045;-76
2021/01/30 04:26:38;;;;;;;8.43;4.28;;;4.50;92.50;;;;;;5031618;28;20022;-75
2021/01/30 04:29:04;;;;;;;7.75;2.80;;;4.50;92.60;;;;;;5032029;28;20477;-76
2021/01/30 04:31:30;;;;;;;4.03;2.17;;;4.50;92.50;;;;;;5031756;28;20026;-77
2021/01/30 04:33:55;;;;;;;7.10;2.53;;;4.40;92.60;;;;;;5014164;28;20081;-76
2021/01/30 04:36:22;;;;;;;5.18;2.63;;;4.40;92.80;;;;;;5013617;28;20040;-76
2021/01/30 04:38:48;;;;;;;6.55;2.88;;;4.40;92.90;;;;;;5031998;28;20069;-77
2021/01/30 04:41:42;;;;;;;5.07;2.03;;;4.30;92.90;;;;;;5031284;28;20025;-75
2021/01/30 04:44:23;;;;;;;2.72;1.63;;;4.30;93.10;;;;;;5025882;28;20405;-76
2021/01/30 04:46:51;;;;;;;6.90;2.65;;;4.20;93.10;;;;;;5033744;28;20032;-76
2021/01/30 04:49:32;;;;;;;4.45;2.17;;;4.20;93.10;;;;;;5034818;28;20029;-76
2021/01/30 04:52:02;;;;;;;5.10;2.20;;;4.20;93.20;;;;;;5033965;28;20116;-76
2021/01/30 04:54:45;;;;;;;4.95;2.55;;;4.10;93.10;;;;;;5035233;28;20075;-75
2021/01/30 04:57:41;;;;;;;5.32;1.98;;;4.10;93.10;;;;;;5033141;28;20434;-76
2021/01/30 05:00:41;;;;;;;3.33;1.73;;;4.00;93.10;;;;;;5034202;28;20017;-76
2021/01/30 05:03:35;;;;;;;4.57;2.38;;;4.00;93.10;;;;;;5033162;28;20037;-76
2021/01/30 05:06:31;;;;;;;3.95;2.28;;;3.90;93.10;;;;;;5034521;28;20022;-77
2021/01/30 05:09:37;;;;;;;5.25;2.42;;;4.00;93.20;;;;;;5024080;28;20036;-77
2021/01/30 05:12:17;;;;;;;4.05;2.20;;;4.00;93.20;;;;;;5000077;28;20535;-77
2021/01/30 05:14:52;;;;;;;5.20;2.25;;;3.90;93.20;;;;;;5033746;28;20029;-77
2021/01/30 05:17:23;;;;;;;5.95;2.55;;;3.90;93.30;;;;;;5033046;28;20029;-76
2021/01/30 05:19:56;;;;;;;8.77;2.50;;;3.90;93.40;;;;;;5034775;28;20057;-76
2021/01/30 05:22:31;;;;;;;4.93;2.42;;;3.90;93.40;;;;;;5032872;28;20037;-77
2021/01/30 05:24:57;;;;;;;5.82;2.58;;;3.80;93.40;;;;;;5034911;28;20029;-77
2021/01/30 05:27:56;;;;;;;6.57;2.38;;;3.80;93.70;;;;;;5032795;28;20409;-77
2021/01/30 05:30:36;;;;;;;6.28;3.20;;;3.80;93.50;;;;;;5034337;28;20062;-77
2021/01/30 05:33:11;;;;;;;4.93;1.77;;;3.80;93.60;;;;;;5037505;28;20021;-77
2021/01/30 05:35:49;;;;;;;5.38;2.08;;;3.80;93.50;;;;;;5039625;28;20032;-77
2021/01/30 05:38:41;;;;;;;4.55;2.03;;;3.90;93.50;;;;;;5040937;28;20018;-77
2021/01/30 05:41:11;;;;;;;5.38;2.92;;;3.90;93.40;;;;;;5034368;28;20025;-77
2021/01/30 05:43:37;;;;;;;6.70;2.60;;;3.90;93.40;;;;;;5032907;28;20072;-77
2021/01/30 05:46:04;;;;;;;5.70;2.88;;;3.90;93.30;;;;;;5032866;28;20295;-78
2021/01/30 05:48:36;;;;;;;4.80;2.40;;;4.00;92.90;;;;;;5033535;28;20139;-77
2021/01/30 05:51:47;;;;;;;6.50;2.95;;;3.90;93.10;;;;;;5035846;28;20021;-77
2021/01/30 05:54:13;;;;;;;7.22;2.78;;;3.90;93.00;;;;;;5010963;28;20025;-78
2021/01/30 05:56:43;;;;;;;5.95;2.88;;;4.00;92.80;;;;;;5027062;28;20125;-78
2021/01/30 05:59:28;;;;;;;4.97;2.72;;;4.00;92.70;;;;;;5033717;28;20079;-78
2021/01/30 06:02:11;;;;;;;5.18;2.20;;;4.10;92.70;;;;;;5033791;28;20029;-77
2021/01/30 06:04:37;;;;;;;4.45;2.35;;;4.00;92.70;;;;;;5034042;28;20026;-77
2021/01/30 06:07:03;;;;;;;4.10;2.35;;;4.10;92.60;;;;;;5032812;28;20140;-77
2021/01/30 06:09:42;;;;;;;5.47;2.53;;;4.10;92.70;;;;;;5033648;28;20067;-77
2021/01/30 06:12:23;;;;;;;5.63;2.88;;;4.10;92.60;;;;;;5033110;28;20440;-78
2021/01/30 06:14:49;;;;;;;4.80;2.13;;;4.10;92.50;;;;;;5032443;28;20031;-77
2021/01/30 06:17:15;;;;;;;5.35;2.70;;;4.20;92.50;;;;;;5032810;28;20025;-77
2021/01/30 06:19:41;;;;;;;4.70;2.05;;;4.20;92.40;;;;;;5032576;28;20021;-76
2021/01/30 06:22:27;;;;;;;5.90;2.63;;;4.20;92.40;;;;;;5031582;28;20025;-78
2021/01/30 06:24:52;;;;;;;6.15;2.83;;;4.30;92.30;;;;;;5031621;28;20080;-76
2021/01/30 06:27:35;;;;;;;6.90;2.42;;;4.20;92.40;;;;;;5031814;28;20045;-77
2021/01/30 06:30:12;;;;;;;7.82;2.80;;;4.20;92.40;;;;;;5033353;28;20025;-77
2021/01/30 06:32:48;;;;;;;6.50;2.95;;;4.20;92.50;;;;;;5032104;28;20454;-77
2021/01/30 06:35:17;;;;;;;6.30;2.60;;;4.20;92.50;;;;;;5031627;28;20028;-77
2021/01/30 06:37:44;;;;;;;6.45;2.63;;;4.30;92.50;;;;;;5032927;28;20079;-77
2021/01/30 06:40:27;;;;;;;7.97;3.03;;;4.30;92.40;;;;;;5032794;28;20021;-77
2021/01/30 06:43:03;;;;;;;6.05;2.35;;;4.30;92.30;;;;;;5031671;28;20029;-77
2021/01/30 06:45:39;;;;;;;8.65;2.63;;;4.30;92.30;;;;;;5014561;28;20026;-77
2021/01/30 06:48:09;;;;;;;4.63;2.50;;;4.20;92.40;;;;;;5033148;28;20028;-76
2021/01/30 06:50:41;;;;;;;6.68;2.40;;;4.10;92.40;;;;;;5033461;28;20547;-77
2021/01/30 06:53:18;;;;;;;5.82;2.10;;;4.20;92.50;;;;;;5015114;28;20034;-76
2021/01/30 06:55:44;;;;;;;9.13;3.95;;;4.20;92.50;;;;;;5033155;28;20037;-77
2021/01/30 06:58:38;;;;;;;5.43;2.45;;;4.20;92.40;;;;;;5032502;28;20037;-77
2021/01/30 07:01:17;;;;;;;5.00;2.40;;;4.30;92.30;;;;;;5032568;28;20469;-76
2021/01/30 07:04:21;;;;;;;5.43;2.30;;;4.20;92.30;;;;;;5032442;28;20026;-76
2021/01/30 07:07:25;;;;;;;6.10;2.15;;;4.20;92.20;;;;;;5032026;28;20109;-77
2021/01/30 07:10:08;;;;;;;4.80;2.33;;;4.20;92.30;;;;;;5032900;28;20021;-77
2021/01/30 07:13:20;;;;;;;7.75;2.75;;;4.20;92.40;;;;;;5014449;28;20037;-77
2021/01/30 07:15:57;;;;;;;;;;;4.20;92.40;;;;;;5033157;28;20021;-77
2021/01/30 07:18:37;;;;;;;5.10;2.60;;;4.10;92.30;;;;;;5014149;28;19905;-77
2021/01/30 07:21:22;;;;;;;7.72;2.35;;;4.20;92.20;;;;;;5014361;28;20033;-76
2021/01/30 07:24:04;;;;;;;6.45;2.50;;;4.30;92.50;;;;;;5014627;28;20021;-76
2021/01/30 07:26:32;;;;;;;;;;;4.30;92.20;;;;;;5014450;28;20040;-77
2021/01/30 07:29:10;;;;;;;6.85;2.58;;;4.20;92.10;;;;;;5014624;28;19912;-76
2021/01/30 07:31:43;;;;;;;5.10;2.47;;;4.30;92.10;;;;;;5014487;28;20113;-76
2021/01/30 07:34:42;;;;;;;4.18;2.75;;;4.30;92.00;;;;;;5014747;28;20017;-76
2021/01/30 07:37:19;;;;;;;5.35;2.03;;;4.20;92.00;;;;;;5032155;28;20017;-76
2021/01/30 07:40:08;;;;;;;3.90;1.55;;;4.10;92.20;;;;;;5014971;28;20469;-76
2021/01/30 07:42:38;;;;;;;5.10;2.63;;;4.10;92.10;;;;;;5031204;28;20029;-76
2021/01/30 07:45:07;;;;;;;3.50;1.88;;;4.10;92.00;;;;;;5028745;28;20041;-78
2021/01/30 07:47:52;;;;;;;7.97;2.85;;;4.10;91.80;;;;;;5031543;28;20044;-78
2021/01/30 07:50:29;;;;;;;4.82;2.42;;;4.10;91.90;;;;;;5030307;28;20083;-79
2021/01/30 07:53:08;;;;;;;6.28;3.63;;;4.10;91.90;;;;;;5032206;28;20108;-78
2021/01/30 07:55:35;;;;;;;5.75;2.97;;;4.10;91.90;;;;;;5030026;28;20030;-76
2021/01/30 07:58:33;;;;;;;6.50;2.60;;;4.10;91.80;;;;;;5030743;28;20121;-77
2021/01/30 08:01:17;;;;;;;5.50;2.40;;;4.20;91.90;;;;;;5024584;28;20509;-77
2021/01/30 08:03:43;;;;;;;4.30;1.65;;;4.20;91.80;;;;;;5031960;28;20060;-77
2021/01/30 08:06:20;;;;;;;7.25;3.05;;;4.20;91.70;;;;;;5030586;28;20022;-77
2021/01/30 08:08:56;;;;;;;8.07;2.45;;;4.30;91.70;;;;;;5031968;28;20049;-76
2021/01/30 08:11:28;;;;;;;4.20;2.13;;;4.30;91.70;;;;;;5029849;28;20025;-77
2021/01/30 08:14:15;;;;;;;5.22;2.35;;;4.30;91.70;;;;;;5030602;28;20389;-77
2021/01/30 08:16:55;;;;;;;5.95;2.03;;;4.30;91.50;;;;;;5033024;28;20113;-76
2021/01/30 08:19:40;;;;;;;5.82;2.25;;;4.30;91.50;;;;;;5034210;28;20075;-77
2021/01/30 08:22:20;;;;;;;5.03;2.08;;;4.20;91.40;;;;;;5035731;28;20403;-76
2021/01/30 08:25:13;;;;;;;6.53;2.40;;;4.20;91.30;;;;;;5035881;28;20025;-76
2021/01/30 08:27:47;;;;;;;5.93;2.15;;;4.10;91.60;;;;;;5034006;28;20445;-77
2021/01/30 08:30:21;;;;;;;6.22;2.72;;;4.10;91.50;;;;;;5035455;28;20059;-78
2021/01/30 08:33:05;;;;;;;6.72;2.90;;;4.20;91.60;;;;;;5034414;28;20025;-78
2021/01/30 08:35:35;;;;;;;5.32;2.78;;;4.20;91.50;;;;;;5033743;28;20025;-78
2021/01/30 08:38:06;;;;;;;5.63;2.40;;;4.20;91.50;;;;;;5034201;28;20060;-78
2021/01/30 08:41:00;;;;;;;6.68;2.33;;;4.30;91.40;;;;;;5033349;28;20022;-77
2021/01/30 08:43:42;;;;;;;6.55;2.42;;;4.30;91.30;;;;;;5033285;28;20056;-76
2021/01/30 08:46:37;;;;;;;5.28;2.30;;;4.30;91.30;;;;;;5017463;28;20022;-76
2021/01/30 08:49:23;;;;;;;8.60;2.80;;;4.30;91.20;;;;;;5033249;28;20041;-76
2021/01/30 08:52:12;;;;;;;4.55;2.22;;;4.40;91.30;;;;;;5035295;28;20069;-76
2021/01/30 08:54:39;;;;;;;5.43;2.65;;;4.40;91.20;;;;;;5021909;28;20073;-76
2021/01/30 08:57:30;;;;;;;3.60;2.05;;;4.40;91.30;;;;;;5017317;28;20028;-76
2021/01/30 08:59:58;;;;;;;9.73;3.33;;;4.40;91.20;;;;;;5035065;28;20030;-76
2021/01/30 09:02:27;;;;;;;6.55;2.97;;;4.40;91.30;;;;;;5034415;28;20025;-77
2021/01/30 09:05:10;;;;;;;4.82;2.40;;;4.40;91.30;;;;;;5016805;28;20053;-77
2021/01/30 09:07:48;;;;;;;5.07;2.25;;;4.40;91.30;;;;;;5034281;28;20107;-76
2021/01/30 09:10:33;;;;;;;7.45;3.00;;;4.40;91.30;;;;;;5017182;28;20385;-78
2021/01/30 09:13:02;;;;;;;6.10;2.35;;;4.40;91.20;;;;;;5016939;28;20036;-77
2021/01/30 09:15:43;;;;;;;6.30;2.60;;;4.40;91.20;;;;;;5034114;28;20409;-76
2021/01/30 09:18:31;;;;;;;3.78;2.03;;;4.40;91.20;;;;;;5016803;28;20021;-76
2021/01/30 09:21:16;;;;;;;6.10;2.78;;;4.40;91.20;;;;;;5034784;28;20067;-77
2021/01/30 09:24:07;;;;;;;4.82;2.17;;;4.40;91.10;;;;;;5016060;28;20116;-75
2021/01/30 09:27:10;;;;;;;8.23;3.17;;;4.40;91.10;;;;;;5034163;28;20033;-75
2021/01/30 09:29:43;;;;;;;6.28;2.65;;;4.50;91.10;;;;;;5032673;28;20022;-76
2021/01/30 09:32:12;;;;;;;5.03;2.20;;;4.50;91.20;;;;;;5034457;28;20033;-75
2021/01/30 09:34:47;;;;;;;5.63;2.13;;;4.50;91.20;;;;;;5015902;28;20025;-76
2021/01/30 09:37:31;;;;;;;6.63;2.47;;;4.50;91.10;;;;;;5016554;28;20114;-75
2021/01/30 09:39:58;;;;;;;8.10;3.38;;;4.50;91.00;;;;;;5034536;28;20071;-77
2021/01/30 09:42:25;;;;;;;5.97;2.45;;;4.40;91.10;;;;;;5015681;28;20111;-77
2021/01/30 09:45:10;;;;;;;6.00;2.55;;;4.50;91.10;;;;;;5027119;28;20038;-76
2021/01/30 09:47:38;;;;;;;6.47;3.00;;;4.50;91.10;;;;;;5033615;28;20026;-76
2021/01/30 09:50:12;;;;;;;4.88;2.47;;;4.50;91.10;;;;;;5032818;28;20028;-76
2021/01/30 09:52:53;;;;;;;6.75;3.10;;;4.50;91.10;;;;;;5033568;28;20030;-76
2021/01/30 09:55:21;;;;;;;4.13;1.75;;;4.50;91.10;;;;;;5032805;28;20108;-77
2021/01/30 09:57:47;;;;;;;8.75;2.67;;;4.60;91.10;;;;;;5033713;28;20026;-75
2021/01/30 10:00:18;;;;;;;5.85;3.15;;;4.60;91.00;;;;;;5012870;28;20049;-84
2021/01/30 10:02:43;;;;;;;6.63;2.80;;;4.60;91.00;;;;;;5016391;28;20029;-83
2021/01/30 10:05:15;;;;;;;7.65;2.78;;;4.70;90.80;;;;;;5033848;28;20010;-83
2021/01/30 10:07:42;;;;;;;7.45;2.67;;;4.70;90.80;;;;;;5038884;28;20021;-83
2021/01/30 10:10:24;;;;;;;5.63;2.85;;;4.70;90.80;;;;;;5023493;28;20030;-79
2021/01/30 10:12:50;;;;;;;;;;;4.80;90.70;;;;;;5018362;28;20059;-78
2021/01/30 10:15:27;;;;;;;6.13;3.17;;;4.70;90.60;;;;;;5013302;28;20019;-80
2021/01/30 10:17:53;;;;;;;6.57;2.92;;;4.80;90.60;;;;;;5017231;28;20017;-76
2021/01/30 10:20:19;;;;;;;2.97;1.77;;;4.80;90.60;;;;;;5024924;28;20040;-80
2021/01/30 10:22:50;;;;;;;9.18;2.28;;;4.80;90.60;;;;;;5015064;28;20034;-78
2021/01/30 10:25:27;;;;;;;4.90;2.30;;;4.90;90.60;;;;;;5017616;28;20030;-81
2021/01/30 10:28:07;;;;;;;6.57;2.95;;;4.90;90.50;;;;;;5019920;28;20025;-81
2021/01/30 10:30:33;;;;;;;5.45;2.38;;;4.90;90.40;;;;;;5018603;28;20058;-81
2021/01/30 10:33:00;;;;;;;5.65;2.38;;;4.90;90.40;;;;;;5019244;28;20131;-81
2021/01/30 10:35:55;;;;;;;8.60;2.60;;;4.90;90.40;;;;;;5022672;28;20033;-81
2021/01/30 10:38:24;;;;;;;5.30;2.35;;;5.00;90.30;;;;;;5003967;28;20046;-82
2021/01/30 10:41:03;;;;;;;7.72;2.88;;;5.00;90.30;;;;;;5017722;28;20113;-81
2021/01/30 10:43:36;;;;;;;8.25;2.55;;;5.10;90.10;;;;;;5016836;28;20068;-82
2021/01/30 10:46:08;;;;;;;9.10;3.28;;;5.10;90.10;;;;;;5000599;28;20039;-82
2021/01/30 10:48:38;;;;;;;5.70;2.22;;;5.10;90.00;;;;;;5015374;28;20026;-82
2021/01/30 10:51:08;;;;;;;5.90;2.57;;;5.10;90.00;;;;;;5001909;28;20032;-84
2021/01/30 10:53:41;;;;;;;5.15;2.35;;;5.10;90.00;;;;;;4993513;28;20025;-82
2021/01/30 10:56:25;;;;;;;4.88;2.00;;;5.20;90.00;;;;;;4998110;28;20022;-84
2021/01/30 10:58:56;;;;;;;6.20;2.40;;;5.20;90.00;;;;;;5006694;28;20462;-82
2021/01/30 11:01:23;;;;;;;7.65;2.40;;;5.20;90.00;;;;;;5007213;28;20040;-79
2021/01/30 11:03:56;;;;;;;6.20;2.70;;;5.20;90.00;;;;;;5021840;28;20025;-79
2021/01/30 11:06:44;;;;;;;6.95;2.92;;;5.30;89.90;;;;;;4998026;28;20079;-80
2021/01/30 11:09:21;;;;;;;5.63;3.10;;;5.40;90.00;;;;;;5007781;28;20025;-79
2021/01/30 11:11:53;;;;;;;5.53;2.22;;;5.40;90.00;;;;;;5024514;28;20025;-79
2021/01/30 11:14:30;;;;;;;6.40;2.60;;;5.40;90.00;;;;;;5004785;28;20031;-80
2021/01/30 11:16:57;;;;;;;6.07;2.60;;;5.40;90.00;;;;;;4999543;28;20033;-80
2021/01/30 11:19:32;;;;;;;5.82;2.40;;;5.50;89.90;;;;;;5021590;28;20030;-80
2021/01/30 11:22:09;;;;;;;6.05;2.72;;;5.50;89.80;;;;;;5019495;28;20097;-81
2021/01/30 11:24:47;;;;;;;5.93;2.15;;;5.60;89.80;;;;;;5018876;28;20037;-84
2021/01/30 11:27:37;;;;;;;5.07;2.65;;;5.60;89.70;;;;;;5002834;28;20054;-79
2021/01/30 11:30:23;;;;;;;5.60;2.55;;;5.70;89.60;;;;;;5017255;28;20442;-80
2021/01/30 11:32:51;;;;;;;6.07;2.50;;;5.70;89.30;;;;;;5006739;28;20033;-84
2021/01/30 11:35:36;;;;;;;8.02;3.47;;;5.70;89.20;;;;;;5019333;28;20021;-81
2021/01/30 11:38:12;;;;;;;5.93;3.03;;;5.80;89.10;;;;;;5016166;28;20052;-82
2021/01/30 11:40:39;;;;;;;5.53;2.30;;;5.70;89.00;;;;;;5012831;28;20108;-82
2021/01/30 11:43:04;;;;;;;7.22;2.53;;;5.80;88.90;;;;;;4998630;28;20108;-83
2021/01/30 11:45:30;;;;;;;5.00;1.98;;;5.80;88.80;;;;;;5016058;28;20072;-84
2021/01/30 11:47:56;;;;;;;5.72;2.50;;;5.80;88.80;;;;;;4999000;28;20091;-85
2021/01/30 11:50:22;;;;;;;5.75;2.75;;;5.90;88.90;;;;;;4997179;28;20121;-84
2021/01/30 11:52:48;;;;;;;5.35;2.40;;;6.00;88.90;;;;;;4993524;28;20049;-86
2021/01/30 11:55:14;;;;;;;5.18;2.40;;;6.00;88.90;;;;;;4995577;28;20022;-83
2021/01/30 11:57:40;;;;;;;5.55;2.60;;;6.00;88.90;;;;;;5017883;28;20376;-87
2021/01/30 12:00:08;;;;;;;4.47;2.28;;;6.00;88.80;;;;;;4996024;28;20026;-85
2021/01/30 12:02:36;;;;;;;5.22;2.28;;;6.00;88.30;;;;;;5019103;28;20037;-86
2021/01/30 12:05:06;;;;;;;6.97;2.88;;;5.90;88.80;;;;;;4996128;28;20163;-83
2021/01/30 12:07:31;;;;;;;5.88;2.95;;;5.90;88.80;;;;;;4997315;28;20432;-85
2021/01/30 12:09:57;;;;;;;8.15;3.35;;;5.80;88.50;;;;;;5001358;28;20109;-86
2021/01/30 12:12:23;;;;;;;9.48;2.90;;;5.80;88.70;;;;;;5000519;28;20121;-84
2021/01/30 12:14:49;;;;;;;5.90;2.80;;;5.80;88.80;;;;;;5022064;28;20103;-84
2021/01/30 12:17:19;;;;;;;4.07;1.98;;;5.80;88.60;;;;;;5009133;28;20029;-84
2021/01/30 12:19:45;;;;;;;4.97;2.58;;;5.80;88.30;;;;;;5007070;28;20057;-84
2021/01/30 12:22:10;;;;;;;5.43;3.08;;;5.70;88.20;;;;;;5014054;28;20030;-84
2021/01/30 12:24:36;;;;;;;5.93;2.45;;;5.70;88.00;;;;;;5019403;28;20021;-82
2021/01/30 12:27:02;;;;;;;7.65;3.00;;;5.80;88.00;;;;;;5013985;28;20034;-82
2021/01/30 12:29:28;;;;;;;8.30;3.30;;;5.80;87.70;;;;;;5001253;28;20032;-84
2021/01/30 12:31:53;;;;;;;5.32;2.33;;;5.80;88.40;;;;;;4997949;28;20392;-85
2021/01/30 12:34:20;;;;;;;5.00;2.50;;;5.90;87.70;;;;;;5004042;28;20018;-82
2021/01/30 12:36:46;;;;;;;5.28;2.72;;;5.90;87.70;;;;;;5003088;28;20132;-76
2021/01/30 12:39:11;;;;;;;5.30;2.28;;;5.90;87.60;;;;;;4997321;28;20109;-73
2021/01/30 12:41:37;;;;;;;7.32;2.78;;;5.90;87.50;;;;;;5002321;28;20100;-74
2021/01/30 12:44:03;;;;;;;6.00;2.20;;;6.00;87.60;;;;;;5002511;28;20095;-75
2021/01/30 12:46:42;;;;;;;7.97;2.10;;;6.00;87.60;;;;;;5021228;28;20065;-75
2021/01/30 12:49:09;;;;;;;5.70;2.72;;;6.00;87.60;;;;;;5021974;28;20454;-75
2021/01/30 12:51:34;;;;;;;8.13;2.85;;;6.00;87.50;;;;;;5014366;28;20018;-76
2021/01/30 12:54:00;;;;;;;6.28;3.10;;;6.00;87.40;;;;;;5015438;28;20077;-75
2021/01/30 12:56:25;;;;;;;5.60;2.55;;;6.10;87.40;;;;;;5023482;28;20432;-75
2021/01/30 12:58:51;;;;;;;7.18;2.33;;;6.10;87.10;;;;;;5018761;28;20081;-75
2021/01/30 13:01:17;;;;;;;5.60;2.63;;;6.10;87.10;;;;;;5020455;28;20138;-76
2021/01/30 13:03:42;;;;;;;6.65;2.28;;;6.10;87.00;;;;;;5024202;28;20130;-74
2021/01/30 13:06:08;;;;;;;7.35;2.95;;;6.10;87.10;;;;;;5024009;28;20025;-74
2021/01/30 13:08:34;;;;;;;5.05;2.35;;;6.10;87.00;;;;;;5018410;28;20033;-76
2021/01/30 13:10:59;;;;;;;7.03;2.78;;;6.10;86.70;;;;;;5020707;28;20470;-74
2021/01/30 13:13:25;;;;;;;4.97;2.63;;;6.10;86.60;;;;;;5025912;28;20064;-75
2021/01/30 13:15:51;;;;;;;6.28;2.47;;;6.10;86.60;;;;;;5027081;28;20474;-74
2021/01/30 13:18:16;;;;;;;8.50;2.47;;;6.10;86.60;;;;;;5025650;28;20105;-76
2021/01/30 13:20:42;;;;;;;5.55;2.58;;;6.10;86.60;;;;;;5028618;28;20083;-75
2021/01/30 13:23:08;;;;;;;4.90;2.83;;;6.10;86.40;;;;;;5024886;28;20022;-76
2021/01/30 13:25:34;;;;;;;8.23;2.70;;;6.00;87.00;;;;;;5020182;28;20041;-75
2021/01/30 13:27:59;;;;;;;4.63;2.00;;;6.00;86.60;;;;;;5025906;28;20018;-76
2021/01/30 13:30:28;;;;;;;5.78;2.20;;;5.90;86.70;;;;;;5028245;28;20037;-75